sensor_id;sensor_type;location;lat;lon;timestamp;P1;durP1;ratioP1;P2;durP2;ratioP2
64061;SDS011;50308;47.438;-1.528;2023-05-07T00:00:27;13.25;;;4.90;;
64061;SDS011;50308;47.438;-1.528;2023-05-07T00:02:53;9.88;;;4.35;;
64061;SDS011;50308;47.438;-1.528;2023-05-07T00:05:19;8.05;;;3.50;;
64061;SDS011;50308;47.438;-1.528;2023-05-07T00:07:44;7.85;;;3.80;;
64061;SDS011;50308;47.438;-1.528;2023-05-07T00:10:10;8.95;;;3.17;;
64061;SDS011;50308;47.438;-1.528;2023-05-07T00:12:37;9.20;;;3.15;;
64061;SDS011;50308;47.438;-1.528;2023-05-07T00:15:03;8.80;;;3.33;;
64061;SDS011;50308;47.438;-1.528;2023-05-07T00:17:29;8.65;;;3.63;;
64061;SDS011;50308;47.438;-1.528;2023-05-07T00:19:55;9.65;;;3.60;;
64061;SDS011;50308;47.438;-1.528;2023-05-07T00:22:21;9.07;;;3.78;;
64061;SDS011;50308;47.438;-1.528;2023-05-07T00:24:47;11.82;;;4.45;;
64061;SDS011;50308;47.438;-1.528;2023-05-07T00:27:12;9.52;;;3.78;;
64061;SDS011;50308;47.438;-1.528;2023-05-07T00:29:38;11.10;;;3.95;;
64061;SDS011;50308;47.438;-1.528;2023-05-07T00:32:04;9.75;;;3.90;;
64061;SDS011;50308;47.438;-1.528;2023-05-07T00:34:30;11.55;;;3.80;;
64061;SDS011;50308;47.438;-1.528;2023-05-07T00:36:55;16.63;;;4.22;;
64061;SDS011;50308;47.438;-1.528;2023-05-07T00:39:21;15.38;;;4.88;;
64061;SDS011;50308;47.438;-1.528;2023-05-07T00:41:47;13.05;;;4.18;;
64061;SDS011;50308;47.438;-1.528;2023-05-07T00:44:13;13.38;;;4.43;;
64061;SDS011;50308;47.438;-1.528;2023-05-07T00:46:39;8.43;;;3.95;;
64061;SDS011;50308;47.438;-1.528;2023-05-07T00:49:06;15.38;;;3.72;;
64061;SDS011;50308;47.438;-1.528;2023-05-07T00:51:32;8.13;;;3.97;;
64061;SDS011;50308;47.438;-1.528;2023-05-07T00:53:59;9.23;;;4.40;;
64061;SDS011;50308;47.438;-1.528;2023-05-07T00:56:27;9.75;;;3.95;;
64061;SDS011;50308;47.438;-1.528;2023-05-07T00:58:53;8.20;;;3.45;;
64061;SDS011;50308;47.438;-1.528;2023-05-07T01:01:19;8.02;;;3.50;;
64061;SDS011;50308;47.438;-1.528;2023-05-07T01:03:45;12.98;;;3.88;;
64061;SDS011;50308;47.438;-1.528;2023-05-07T01:06:11;23.20;;;4.88;;
64061;SDS011;50308;47.438;-1.528;2023-05-07T01:08:38;11.02;;;4.05;;
64061;SDS011;50308;47.438;-1.528;2023-05-07T01:11:06;12.93;;;4.07;;
64061;SDS011;50308;47.438;-1.528;2023-05-07T01:13:33;14.77;;;4.75;;
64061;SDS011;50308;47.438;-1.528;2023-05-07T01:16:00;13.50;;;4.57;;
64061;SDS011;50308;47.438;-1.528;2023-05-07T01:18:26;13.20;;;4.15;;
64061;SDS011;50308;47.438;-1.528;2023-05-07T01:20:52;12.07;;;4.53;;
64061;SDS011;50308;47.438;-1.528;2023-05-07T01:23:17;12.45;;;4.47;;
64061;SDS011;50308;47.438;-1.528;2023-05-07T01:25:50;15.80;;;5.97;;
64061;SDS011;50308;47.438;-1.528;2023-05-07T01:28:19;15.15;;;6.20;;
64061;SDS011;50308;47.438;-1.528;2023-05-07T01:30:46;12.02;;;4.75;;
64061;SDS011;50308;47.438;-1.528;2023-05-07T01:33:19;12.00;;;4.88;;
64061;SDS011;50308;47.438;-1.528;2023-05-07T01:35:47;10.33;;;5.37;;
64061;SDS011;50308;47.438;-1.528;2023-05-07T01:38:16;17.52;;;7.13;;
64061;SDS011;50308;47.438;-1.528;2023-05-07T01:40:43;19.35;;;5.88;;
64061;SDS011;50308;47.438;-1.528;2023-05-07T01:43:10;13.00;;;5.38;;
64061;SDS011;50308;47.438;-1.528;2023-05-07T01:45:36;13.73;;;5.32;;
64061;SDS011;50308;47.438;-1.528;2023-05-07T01:48:02;13.52;;;5.47;;
64061;SDS011;50308;47.438;-1.528;2023-05-07T01:50:28;14.07;;;4.80;;
64061;SDS011;50308;47.438;-1.528;2023-05-07T01:52:56;17.52;;;6.00;;
64061;SDS011;50308;47.438;-1.528;2023-05-07T01:55:22;11.27;;;5.70;;
64061;SDS011;50308;47.438;-1.528;2023-05-07T01:57:48;13.73;;;5.45;;
64061;SDS011;50308;47.438;-1.528;2023-05-07T02:00:14;17.92;;;5.60;;
64061;SDS011;50308;47.438;-1.528;2023-05-07T02:02:40;12.13;;;4.85;;
64061;SDS011;50308;47.438;-1.528;2023-05-07T02:05:06;15.88;;;6.00;;
64061;SDS011;50308;47.438;-1.528;2023-05-07T02:07:32;14.85;;;5.88;;
64061;SDS011;50308;47.438;-1.528;2023-05-07T02:09:57;14.10;;;6.38;;
64061;SDS011;50308;47.438;-1.528;2023-05-07T02:12:23;17.90;;;6.03;;
64061;SDS011;50308;47.438;-1.528;2023-05-07T02:14:49;15.30;;;5.72;;
64061;SDS011;50308;47.438;-1.528;2023-05-07T02:17:15;13.57;;;6.30;;
64061;SDS011;50308;47.438;-1.528;2023-05-07T02:19:40;16.02;;;5.93;;
64061;SDS011;50308;47.438;-1.528;2023-05-07T02:22:06;14.63;;;6.50;;
64061;SDS011;50308;47.438;-1.528;2023-05-07T02:24:32;15.38;;;5.57;;
64061;SDS011;50308;47.438;-1.528;2023-05-07T02:26:58;14.30;;;5.78;;
64061;SDS011;50308;47.438;-1.528;2023-05-07T02:29:24;12.57;;;5.75;;
64061;SDS011;50308;47.438;-1.528;2023-05-07T02:31:49;11.95;;;5.40;;
64061;SDS011;50308;47.438;-1.528;2023-05-07T02:34:16;11.00;;;5.57;;
64061;SDS011;50308;47.438;-1.528;2023-05-07T02:36:42;12.70;;;5.72;;
64061;SDS011;50308;47.438;-1.528;2023-05-07T02:39:08;13.63;;;6.13;;
64061;SDS011;50308;47.438;-1.528;2023-05-07T02:41:33;11.82;;;5.53;;
64061;SDS011;50308;47.438;-1.528;2023-05-07T02:43:59;11.65;;;5.97;;
64061;SDS011;50308;47.438;-1.528;2023-05-07T02:46:25;14.18;;;5.20;;
64061;SDS011;50308;47.438;-1.528;2023-05-07T02:48:51;10.70;;;6.03;;
64061;SDS011;50308;47.438;-1.528;2023-05-07T02:51:19;11.65;;;5.72;;
64061;SDS011;50308;47.438;-1.528;2023-05-07T02:53:45;13.85;;;5.78;;
64061;SDS011;50308;47.438;-1.528;2023-05-07T02:56:11;15.68;;;5.30;;
64061;SDS011;50308;47.438;-1.528;2023-05-07T02:58:37;13.18;;;5.60;;
64061;SDS011;50308;47.438;-1.528;2023-05-07T03:01:07;13.10;;;5.00;;
64061;SDS011;50308;47.438;-1.528;2023-05-07T03:03:33;13.68;;;5.57;;
64061;SDS011;50308;47.438;-1.528;2023-05-07T03:06:00;10.60;;;5.20;;
64061;SDS011;50308;47.438;-1.528;2023-05-07T03:08:25;13.63;;;5.10;;
64061;SDS011;50308;47.438;-1.528;2023-05-07T03:10:51;11.95;;;4.70;;
64061;SDS011;50308;47.438;-1.528;2023-05-07T03:13:17;11.10;;;4.22;;
64061;SDS011;50308;47.438;-1.528;2023-05-07T03:15:43;8.48;;;4.30;;
64061;SDS011;50308;47.438;-1.528;2023-05-07T03:18:08;10.77;;;4.43;;
64061;SDS011;50308;47.438;-1.528;2023-05-07T03:20:34;12.65;;;4.00;;
64061;SDS011;50308;47.438;-1.528;2023-05-07T03:23:01;10.05;;;4.65;;
64061;SDS011;50308;47.438;-1.528;2023-05-07T03:25:27;13.40;;;3.88;;
64061;SDS011;50308;47.438;-1.528;2023-05-07T03:27:53;6.22;;;2.90;;
64061;SDS011;50308;47.438;-1.528;2023-05-07T03:30:18;11.27;;;3.55;;
64061;SDS011;50308;47.438;-1.528;2023-05-07T03:32:45;8.63;;;3.20;;
64061;SDS011;50308;47.438;-1.528;2023-05-07T03:35:10;7.38;;;2.80;;
64061;SDS011;50308;47.438;-1.528;2023-05-07T03:37:37;9.80;;;3.15;;
64061;SDS011;50308;47.438;-1.528;2023-05-07T03:40:03;8.43;;;2.60;;
64061;SDS011;50308;47.438;-1.528;2023-05-07T03:42:30;7.88;;;2.80;;
64061;SDS011;50308;47.438;-1.528;2023-05-07T03:44:55;5.97;;;2.42;;
64061;SDS011;50308;47.438;-1.528;2023-05-07T03:47:21;7.68;;;2.83;;
64061;SDS011;50308;47.438;-1.528;2023-05-07T03:49:47;9.10;;;3.13;;
64061;SDS011;50308;47.438;-1.528;2023-05-07T03:52:14;8.48;;;3.05;;
64061;SDS011;50308;47.438;-1.528;2023-05-07T03:54:40;6.15;;;2.42;;
64061;SDS011;50308;47.438;-1.528;2023-05-07T03:57:06;6.20;;;2.08;;
64061;SDS011;50308;47.438;-1.528;2023-05-07T03:59:31;4.63;;;2.00;;
64061;SDS011;50308;47.438;-1.528;2023-05-07T04:01:57;5.30;;;2.10;;
64061;SDS011;50308;47.438;-1.528;2023-05-07T04:04:23;4.93;;;2.00;;
64061;SDS011;50308;47.438;-1.528;2023-05-07T04:06:49;4.15;;;2.05;;
64061;SDS011;50308;47.438;-1.528;2023-05-07T04:09:14;6.20;;;2.20;;
64061;SDS011;50308;47.438;-1.528;2023-05-07T04:11:40;4.68;;;2.10;;
64061;SDS011;50308;47.438;-1.528;2023-05-07T04:14:06;6.40;;;2.20;;
64061;SDS011;50308;47.438;-1.528;2023-05-07T04:16:32;8.52;;;1.90;;
64061;SDS011;50308;47.438;-1.528;2023-05-07T04:18:57;6.32;;;2.78;;
64061;SDS011;50308;47.438;-1.528;2023-05-07T04:21:23;4.28;;;1.85;;
64061;SDS011;50308;47.438;-1.528;2023-05-07T04:23:49;6.03;;;2.25;;
64061;SDS011;50308;47.438;-1.528;2023-05-07T04:26:14;4.10;;;2.03;;
64061;SDS011;50308;47.438;-1.528;2023-05-07T04:28:41;3.65;;;1.70;;
64061;SDS011;50308;47.438;-1.528;2023-05-07T04:31:08;4.10;;;1.60;;
64061;SDS011;50308;47.438;-1.528;2023-05-07T04:33:33;4.47;;;2.00;;
64061;SDS011;50308;47.438;-1.528;2023-05-07T04:36:02;3.58;;;1.40;;
64061;SDS011;50308;47.438;-1.528;2023-05-07T04:38:31;3.63;;;1.65;;
64061;SDS011;50308;47.438;-1.528;2023-05-07T04:40:58;3.45;;;1.38;;
64061;SDS011;50308;47.438;-1.528;2023-05-07T04:43:28;3.45;;;1.30;;
64061;SDS011;50308;47.438;-1.528;2023-05-07T04:45:54;4.10;;;1.92;;
64061;SDS011;50308;47.438;-1.528;2023-05-07T04:48:20;3.42;;;1.20;;
64061;SDS011;50308;47.438;-1.528;2023-05-07T04:50:49;2.13;;;1.05;;
64061;SDS011;50308;47.438;-1.528;2023-05-07T04:53:15;2.30;;;0.98;;
64061;SDS011;50308;47.438;-1.528;2023-05-07T04:55:42;2.88;;;0.70;;
64061;SDS011;50308;47.438;-1.528;2023-05-07T04:58:08;2.38;;;1.05;;
64061;SDS011;50308;47.438;-1.528;2023-05-07T05:00:34;2.22;;;0.93;;
64061;SDS011;50308;47.438;-1.528;2023-05-07T05:03:00;2.03;;;0.90;;
64061;SDS011;50308;47.438;-1.528;2023-05-07T05:05:25;1.88;;;0.77;;
64061;SDS011;50308;47.438;-1.528;2023-05-07T05:07:51;1.30;;;0.60;;
64061;SDS011;50308;47.438;-1.528;2023-05-07T05:10:17;1.60;;;0.70;;
64061;SDS011;50308;47.438;-1.528;2023-05-07T05:12:43;1.80;;;0.52;;
64061;SDS011;50308;47.438;-1.528;2023-05-07T05:15:10;0.93;;;0.60;;
64061;SDS011;50308;47.438;-1.528;2023-05-07T05:17:36;1.80;;;0.70;;
64061;SDS011;50308;47.438;-1.528;2023-05-07T05:20:02;1.20;;;0.60;;
64061;SDS011;50308;47.438;-1.528;2023-05-07T05:22:28;1.50;;;0.70;;
64061;SDS011;50308;47.438;-1.528;2023-05-07T05:24:56;2.00;;;0.88;;
64061;SDS011;50308;47.438;-1.528;2023-05-07T05:27:22;1.52;;;0.70;;
64061;SDS011;50308;47.438;-1.528;2023-05-07T05:29:47;1.50;;;0.95;;
64061;SDS011;50308;47.438;-1.528;2023-05-07T05:32:13;0.88;;;0.38;;
64061;SDS011;50308;47.438;-1.528;2023-05-07T05:34:39;1.23;;;0.57;;
64061;SDS011;50308;47.438;-1.528;2023-05-07T05:37:04;3.22;;;0.80;;
64061;SDS011;50308;47.438;-1.528;2023-05-07T05:39:30;1.50;;;0.52;;
64061;SDS011;50308;47.438;-1.528;2023-05-07T05:41:56;1.33;;;0.90;;
64061;SDS011;50308;47.438;-1.528;2023-05-07T05:44:22;1.77;;;0.60;;
64061;SDS011;50308;47.438;-1.528;2023-05-07T05:46:47;1.17;;;0.50;;
64061;SDS011;50308;47.438;-1.528;2023-05-07T05:49:14;3.33;;;1.15;;
64061;SDS011;50308;47.438;-1.528;2023-05-07T05:51:40;1.40;;;0.88;;
64061;SDS011;50308;47.438;-1.528;2023-05-07T05:54:06;1.38;;;1.08;;
64061;SDS011;50308;47.438;-1.528;2023-05-07T05:56:32;1.92;;;0.73;;
64061;SDS011;50308;47.438;-1.528;2023-05-07T05:58:58;0.80;;;0.60;;
64061;SDS011;50308;47.438;-1.528;2023-05-07T06:01:23;1.50;;;0.82;;
64061;SDS011;50308;47.438;-1.528;2023-05-07T06:03:49;2.55;;;0.90;;
64061;SDS011;50308;47.438;-1.528;2023-05-07T06:06:14;1.23;;;0.57;;
64061;SDS011;50308;47.438;-1.528;2023-05-07T06:08:40;1.40;;;0.50;;
64061;SDS011;50308;47.438;-1.528;2023-05-07T06:11:06;2.08;;;0.65;;
64061;SDS011;50308;47.438;-1.528;2023-05-07T06:13:32;2.55;;;0.77;;
64061;SDS011;50308;47.438;-1.528;2023-05-07T06:15:58;0.95;;;0.60;;
64061;SDS011;50308;47.438;-1.528;2023-05-07T06:18:23;2.95;;;0.73;;
64061;SDS011;50308;47.438;-1.528;2023-05-07T06:20:51;1.88;;;0.88;;
64061;SDS011;50308;47.438;-1.528;2023-05-07T06:23:17;1.35;;;0.47;;
64061;SDS011;50308;47.438;-1.528;2023-05-07T06:25:47;1.88;;;0.68;;
64061;SDS011;50308;47.438;-1.528;2023-05-07T06:28:13;1.17;;;0.65;;
64061;SDS011;50308;47.438;-1.528;2023-05-07T06:30:39;1.50;;;0.70;;
64061;SDS011;50308;47.438;-1.528;2023-05-07T06:33:05;2.83;;;0.70;;
64061;SDS011;50308;47.438;-1.528;2023-05-07T06:35:31;1.65;;;0.63;;
64061;SDS011;50308;47.438;-1.528;2023-05-07T06:37:56;1.23;;;0.73;;
64061;SDS011;50308;47.438;-1.528;2023-05-07T06:40:22;1.00;;;0.75;;
64061;SDS011;50308;47.438;-1.528;2023-05-07T06:42:48;1.13;;;0.60;;
64061;SDS011;50308;47.438;-1.528;2023-05-07T06:45:13;1.55;;;0.90;;
64061;SDS011;50308;47.438;-1.528;2023-05-07T06:47:39;3.05;;;0.80;;
64061;SDS011;50308;47.438;-1.528;2023-05-07T06:50:05;1.27;;;0.70;;
64061;SDS011;50308;47.438;-1.528;2023-05-07T06:52:31;0.90;;;0.68;;
64061;SDS011;50308;47.438;-1.528;2023-05-07T06:54:57;1.95;;;0.80;;
64061;SDS011;50308;47.438;-1.528;2023-05-07T06:57:22;1.40;;;0.50;;
64061;SDS011;50308;47.438;-1.528;2023-05-07T06:59:48;2.70;;;0.60;;
64061;SDS011;50308;47.438;-1.528;2023-05-07T07:02:14;1.48;;;0.73;;
64061;SDS011;50308;47.438;-1.528;2023-05-07T07:04:40;1.50;;;0.70;;
64061;SDS011;50308;47.438;-1.528;2023-05-07T07:07:07;0.73;;;0.60;;
64061;SDS011;50308;47.438;-1.528;2023-05-07T07:09:32;1.08;;;0.70;;
64061;SDS011;50308;47.438;-1.528;2023-05-07T07:11:58;2.17;;;0.80;;
64061;SDS011;50308;47.438;-1.528;2023-05-07T07:14:24;1.80;;;0.80;;
64061;SDS011;50308;47.438;-1.528;2023-05-07T07:16:50;3.60;;;0.90;;
64061;SDS011;50308;47.438;-1.528;2023-05-07T07:19:16;1.02;;;0.85;;
64061;SDS011;50308;47.438;-1.528;2023-05-07T07:21:42;1.70;;;0.80;;
64061;SDS011;50308;47.438;-1.528;2023-05-07T07:24:07;2.03;;;0.75;;
64061;SDS011;50308;47.438;-1.528;2023-05-07T07:26:33;1.60;;;0.68;;
64061;SDS011;50308;47.438;-1.528;2023-05-07T07:28:59;0.77;;;0.57;;
64061;SDS011;50308;47.438;-1.528;2023-05-07T07:31:25;0.80;;;0.60;;
64061;SDS011;50308;47.438;-1.528;2023-05-07T07:33:51;1.98;;;0.77;;
64061;SDS011;50308;47.438;-1.528;2023-05-07T07:36:16;2.08;;;0.68;;
64061;SDS011;50308;47.438;-1.528;2023-05-07T07:38:42;1.38;;;0.93;;
64061;SDS011;50308;47.438;-1.528;2023-05-07T07:41:08;0.82;;;0.60;;
64061;SDS011;50308;47.438;-1.528;2023-05-07T07:43:34;1.80;;;0.90;;
64061;SDS011;50308;47.438;-1.528;2023-05-07T07:46:00;1.00;;;0.70;;
64061;SDS011;50308;47.438;-1.528;2023-05-07T07:48:26;1.30;;;0.68;;
64061;SDS011;50308;47.438;-1.528;2023-05-07T07:50:52;1.98;;;0.90;;
64061;SDS011;50308;47.438;-1.528;2023-05-07T07:53:17;1.73;;;1.20;;
64061;SDS011;50308;47.438;-1.528;2023-05-07T07:55:43;0.85;;;0.60;;
64061;SDS011;50308;47.438;-1.528;2023-05-07T07:58:09;1.88;;;0.93;;
64061;SDS011;50308;47.438;-1.528;2023-05-07T08:00:35;1.33;;;0.70;;
64061;SDS011;50308;47.438;-1.528;2023-05-07T08:03:01;0.88;;;0.63;;
64061;SDS011;50308;47.438;-1.528;2023-05-07T08:05:28;1.20;;;0.90;;
64061;SDS011;50308;47.438;-1.528;2023-05-07T08:07:54;3.80;;;0.80;;
64061;SDS011;50308;47.438;-1.528;2023-05-07T08:10:20;1.80;;;0.80;;
64061;SDS011;50308;47.438;-1.528;2023-05-07T08:12:49;1.55;;;0.77;;
64061;SDS011;50308;47.438;-1.528;2023-05-07T08:15:15;1.10;;;0.70;;
64061;SDS011;50308;47.438;-1.528;2023-05-07T08:17:41;0.80;;;0.60;;
64061;SDS011;50308;47.438;-1.528;2023-05-07T08:20:07;0.88;;;0.60;;
64061;SDS011;50308;47.438;-1.528;2023-05-07T08:22:34;1.83;;;0.93;;
64061;SDS011;50308;47.438;-1.528;2023-05-07T08:25:00;1.45;;;0.80;;
64061;SDS011;50308;47.438;-1.528;2023-05-07T08:27:26;1.17;;;0.60;;
64061;SDS011;50308;47.438;-1.528;2023-05-07T08:29:52;1.50;;;0.80;;
64061;SDS011;50308;47.438;-1.528;2023-05-07T08:32:18;1.30;;;0.80;;
64061;SDS011;50308;47.438;-1.528;2023-05-07T08:34:44;1.25;;;0.73;;
64061;SDS011;50308;47.438;-1.528;2023-05-07T08:37:09;2.40;;;0.80;;
64061;SDS011;50308;47.438;-1.528;2023-05-07T08:39:35;1.10;;;0.77;;
64061;SDS011;50308;47.438;-1.528;2023-05-07T08:42:01;1.63;;;0.82;;
64061;SDS011;50308;47.438;-1.528;2023-05-07T08:44:29;2.22;;;0.60;;
64061;SDS011;50308;47.438;-1.528;2023-05-07T08:47:03;1.55;;;0.75;;
64061;SDS011;50308;47.438;-1.528;2023-05-07T08:49:31;1.10;;;0.77;;
64061;SDS011;50308;47.438;-1.528;2023-05-07T08:51:59;1.33;;;0.63;;
64061;SDS011;50308;47.438;-1.528;2023-05-07T08:54:25;1.20;;;0.90;;
64061;SDS011;50308;47.438;-1.528;2023-05-07T08:56:52;1.73;;;0.95;;
64061;SDS011;50308;47.438;-1.528;2023-05-07T08:59:18;1.08;;;0.70;;
64061;SDS011;50308;47.438;-1.528;2023-05-07T09:01:44;1.30;;;0.75;;
64061;SDS011;50308;47.438;-1.528;2023-05-07T09:04:09;0.93;;;0.68;;
64061;SDS011;50308;47.438;-1.528;2023-05-07T09:06:36;1.02;;;0.70;;
64061;SDS011;50308;47.438;-1.528;2023-05-07T09:09:06;11.52;;;2.63;;
64061;SDS011;50308;47.438;-1.528;2023-05-07T09:11:32;10.20;;;1.95;;
64061;SDS011;50308;47.438;-1.528;2023-05-07T09:13:58;1.83;;;0.85;;
64061;SDS011;50308;47.438;-1.528;2023-05-07T09:16:28;2.45;;;0.85;;
64061;SDS011;50308;47.438;-1.528;2023-05-07T09:18:57;1.10;;;0.77;;
64061;SDS011;50308;47.438;-1.528;2023-05-07T09:21:25;1.47;;;0.80;;
64061;SDS011;50308;47.438;-1.528;2023-05-07T09:23:51;2.65;;;1.20;;
64061;SDS011;50308;47.438;-1.528;2023-05-07T09:26:18;2.63;;;0.98;;
64061;SDS011;50308;47.438;-1.528;2023-05-07T09:28:47;1.83;;;1.02;;
64061;SDS011;50308;47.438;-1.528;2023-05-07T09:31:12;1.80;;;1.00;;
64061;SDS011;50308;47.438;-1.528;2023-05-07T09:33:38;1.65;;;1.10;;
64061;SDS011;50308;47.438;-1.528;2023-05-07T09:36:05;2.45;;;1.00;;
64061;SDS011;50308;47.438;-1.528;2023-05-07T09:38:33;2.72;;;1.60;;
64061;SDS011;50308;47.438;-1.528;2023-05-07T09:43:32;2.10;;;1.40;;
64061;SDS011;50308;47.438;-1.528;2023-05-07T09:46:02;2.67;;;1.20;;
64061;SDS011;50308;47.438;-1.528;2023-05-07T09:48:39;2.55;;;1.40;;
64061;SDS011;50308;47.438;-1.528;2023-05-07T09:51:11;2.25;;;1.10;;
64061;SDS011;50308;47.438;-1.528;2023-05-07T09:53:52;2.08;;;1.42;;
64061;SDS011;50308;47.438;-1.528;2023-05-07T09:56:18;2.30;;;1.08;;
64061;SDS011;50308;47.438;-1.528;2023-05-07T09:58:45;2.45;;;1.00;;
64061;SDS011;50308;47.438;-1.528;2023-05-07T10:01:12;1.75;;;0.98;;
64061;SDS011;50308;47.438;-1.528;2023-05-07T10:03:41;1.40;;;1.20;;
64061;SDS011;50308;47.438;-1.528;2023-05-07T10:06:09;2.33;;;1.00;;
64061;SDS011;50308;47.438;-1.528;2023-05-07T10:08:36;1.92;;;0.90;;
64061;SDS011;50308;47.438;-1.528;2023-05-07T10:11:03;1.45;;;0.90;;
64061;SDS011;50308;47.438;-1.528;2023-05-07T10:13:30;1.52;;;1.00;;
64061;SDS011;50308;47.438;-1.528;2023-05-07T10:15:58;2.30;;;1.20;;
64061;SDS011;50308;47.438;-1.528;2023-05-07T10:18:24;2.35;;;1.08;;
64061;SDS011;50308;47.438;-1.528;2023-05-07T10:20:54;1.60;;;0.93;;
64061;SDS011;50308;47.438;-1.528;2023-05-07T10:23:33;2.35;;;0.98;;
64061;SDS011;50308;47.438;-1.528;2023-05-07T10:25:59;1.17;;;0.98;;
64061;SDS011;50308;47.438;-1.528;2023-05-07T10:28:28;5.60;;;1.40;;
64061;SDS011;50308;47.438;-1.528;2023-05-07T10:31:07;1.67;;;1.05;;
64061;SDS011;50308;47.438;-1.528;2023-05-07T10:33:33;1.50;;;0.88;;
64061;SDS011;50308;47.438;-1.528;2023-05-07T10:36:01;2.15;;;0.80;;
64061;SDS011;50308;47.438;-1.528;2023-05-07T10:38:29;2.80;;;1.27;;
64061;SDS011;50308;47.438;-1.528;2023-05-07T10:40:55;1.63;;;1.20;;
64061;SDS011;50308;47.438;-1.528;2023-05-07T10:43:21;1.75;;;0.98;;
64061;SDS011;50308;47.438;-1.528;2023-05-07T10:46:09;3.97;;;1.30;;
64061;SDS011;50308;47.438;-1.528;2023-05-07T10:49:05;2.55;;;1.50;;
64061;SDS011;50308;47.438;-1.528;2023-05-07T10:51:34;3.95;;;2.05;;
64061;SDS011;50308;47.438;-1.528;2023-05-07T10:56:35;7.32;;;4.72;;
64061;SDS011;50308;47.438;-1.528;2023-05-07T11:01:58;6.70;;;4.50;;
64061;SDS011;50308;47.438;-1.528;2023-05-07T11:04:27;8.30;;;4.85;;
64061;SDS011;50308;47.438;-1.528;2023-05-07T11:17:35;2.42;;;1.45;;
64061;SDS011;50308;47.438;-1.528;2023-05-07T11:20:44;3.45;;;2.00;;
64061;SDS011;50308;47.438;-1.528;2023-05-07T11:54:17;1.70;;;1.05;;
64061;SDS011;50308;47.438;-1.528;2023-05-07T11:56:44;2.13;;;0.80;;
64061;SDS011;50308;47.438;-1.528;2023-05-07T11:59:10;4.03;;;1.52;;
64061;SDS011;50308;47.438;-1.528;2023-05-07T12:01:36;3.33;;;1.80;;
64061;SDS011;50308;47.438;-1.528;2023-05-07T12:04:02;3.38;;;1.80;;
64061;SDS011;50308;47.438;-1.528;2023-05-07T12:06:30;3.08;;;1.88;;
64061;SDS011;50308;47.438;-1.528;2023-05-07T12:08:55;4.63;;;1.83;;
64061;SDS011;50308;47.438;-1.528;2023-05-07T12:11:22;6.15;;;2.75;;
64061;SDS011;50308;47.438;-1.528;2023-05-07T12:13:50;9.13;;;2.17;;
64061;SDS011;50308;47.438;-1.528;2023-05-07T12:16:16;2.50;;;1.38;;
64061;SDS011;50308;47.438;-1.528;2023-05-07T12:18:43;2.67;;;1.42;;
64061;SDS011;50308;47.438;-1.528;2023-05-07T12:21:09;1.73;;;1.10;;
64061;SDS011;50308;47.438;-1.528;2023-05-07T12:23:36;2.13;;;1.33;;
64061;SDS011;50308;47.438;-1.528;2023-05-07T12:26:02;2.25;;;1.35;;
64061;SDS011;50308;47.438;-1.528;2023-05-07T12:28:28;3.35;;;1.40;;
64061;SDS011;50308;47.438;-1.528;2023-05-07T12:30:55;3.00;;;1.42;;
64061;SDS011;50308;47.438;-1.528;2023-05-07T12:33:25;2.83;;;1.75;;
64061;SDS011;50308;47.438;-1.528;2023-05-07T12:35:53;3.38;;;1.23;;
64061;SDS011;50308;47.438;-1.528;2023-05-07T12:38:20;2.75;;;1.13;;
64061;SDS011;50308;47.438;-1.528;2023-05-07T12:40:47;4.13;;;2.00;;
64061;SDS011;50308;47.438;-1.528;2023-05-07T12:43:25;2.85;;;1.60;;
64061;SDS011;50308;47.438;-1.528;2023-05-07T12:45:56;4.60;;;1.98;;
64061;SDS011;50308;47.438;-1.528;2023-05-07T12:48:22;3.60;;;1.90;;
64061;SDS011;50308;47.438;-1.528;2023-05-07T12:50:52;3.90;;;2.10;;
64061;SDS011;50308;47.438;-1.528;2023-05-07T12:53:20;3.05;;;2.05;;
64061;SDS011;50308;47.438;-1.528;2023-05-07T12:55:48;3.63;;;1.95;;
64061;SDS011;50308;47.438;-1.528;2023-05-07T12:58:19;3.92;;;1.98;;
64061;SDS011;50308;47.438;-1.528;2023-05-07T13:00:45;2.97;;;1.90;;
64061;SDS011;50308;47.438;-1.528;2023-05-07T13:03:20;2.22;;;1.95;;
64061;SDS011;50308;47.438;-1.528;2023-05-07T13:06:09;2.25;;;1.83;;
64061;SDS011;50308;47.438;-1.528;2023-05-07T13:08:36;3.15;;;1.90;;
64061;SDS011;50308;47.438;-1.528;2023-05-07T13:11:06;4.57;;;2.13;;
64061;SDS011;50308;47.438;-1.528;2023-05-07T13:13:34;8.20;;;3.35;;
64061;SDS011;50308;47.438;-1.528;2023-05-07T13:16:01;2.85;;;2.20;;
64061;SDS011;50308;47.438;-1.528;2023-05-07T13:18:29;3.65;;;2.53;;
64061;SDS011;50308;47.438;-1.528;2023-05-07T13:20:55;2.75;;;1.65;;
64061;SDS011;50308;47.438;-1.528;2023-05-07T13:23:21;2.38;;;1.65;;
64061;SDS011;50308;47.438;-1.528;2023-05-07T13:25:47;1.90;;;1.33;;
64061;SDS011;50308;47.438;-1.528;2023-05-07T13:28:14;2.45;;;1.63;;
64061;SDS011;50308;47.438;-1.528;2023-05-07T13:30:39;1.67;;;1.10;;
64061;SDS011;50308;47.438;-1.528;2023-05-07T13:33:08;1.58;;;1.00;;
64061;SDS011;50308;47.438;-1.528;2023-05-07T13:35:34;1.00;;;0.80;;
64061;SDS011;50308;47.438;-1.528;2023-05-07T13:38:00;1.55;;;0.93;;
64061;SDS011;50308;47.438;-1.528;2023-05-07T13:40:26;1.30;;;0.93;;
64061;SDS011;50308;47.438;-1.528;2023-05-07T13:42:52;1.67;;;0.85;;
64061;SDS011;50308;47.438;-1.528;2023-05-07T13:45:18;1.13;;;0.93;;
64061;SDS011;50308;47.438;-1.528;2023-05-07T13:47:44;1.27;;;0.93;;
64061;SDS011;50308;47.438;-1.528;2023-05-07T13:50:11;2.15;;;0.98;;
64061;SDS011;50308;47.438;-1.528;2023-05-07T13:52:39;2.20;;;0.90;;
64061;SDS011;50308;47.438;-1.528;2023-05-07T13:55:06;1.40;;;0.70;;
64061;SDS011;50308;47.438;-1.528;2023-05-07T13:57:32;0.75;;;0.60;;
64061;SDS011;50308;47.438;-1.528;2023-05-07T13:59:58;1.20;;;0.68;;
64061;SDS011;50308;47.438;-1.528;2023-05-07T14:02:23;0.85;;;0.60;;
64061;SDS011;50308;47.438;-1.528;2023-05-07T14:04:49;0.98;;;0.70;;
64061;SDS011;50308;47.438;-1.528;2023-05-07T14:07:15;1.23;;;0.75;;
64061;SDS011;50308;47.438;-1.528;2023-05-07T14:09:40;0.90;;;0.60;;
64061;SDS011;50308;47.438;-1.528;2023-05-07T14:12:06;0.75;;;0.60;;
64061;SDS011;50308;47.438;-1.528;2023-05-07T14:14:32;1.25;;;0.75;;
64061;SDS011;50308;47.438;-1.528;2023-05-07T14:16:57;1.52;;;0.77;;
64061;SDS011;50308;47.438;-1.528;2023-05-07T14:19:23;1.80;;;0.80;;
64061;SDS011;50308;47.438;-1.528;2023-05-07T14:21:49;1.50;;;0.90;;
64061;SDS011;50308;47.438;-1.528;2023-05-07T14:24:14;1.27;;;0.80;;
64061;SDS011;50308;47.438;-1.528;2023-05-07T14:26:40;2.95;;;0.70;;
64061;SDS011;50308;47.438;-1.528;2023-05-07T14:29:06;2.67;;;0.60;;
64061;SDS011;50308;47.438;-1.528;2023-05-07T14:31:31;1.83;;;0.80;;
64061;SDS011;50308;47.438;-1.528;2023-05-07T14:33:58;0.90;;;0.60;;
64061;SDS011;50308;47.438;-1.528;2023-05-07T14:36:24;4.20;;;1.00;;
64061;SDS011;50308;47.438;-1.528;2023-05-07T14:38:51;0.93;;;0.60;;
64061;SDS011;50308;47.438;-1.528;2023-05-07T14:41:21;1.02;;;0.70;;
64061;SDS011;50308;47.438;-1.528;2023-05-07T14:43:47;1.13;;;0.50;;
64061;SDS011;50308;47.438;-1.528;2023-05-07T14:46:17;0.93;;;0.57;;
64061;SDS011;50308;47.438;-1.528;2023-05-07T14:48:44;1.45;;;0.45;;
64061;SDS011;50308;47.438;-1.528;2023-05-07T14:51:11;0.82;;;0.60;;
64061;SDS011;50308;47.438;-1.528;2023-05-07T14:53:37;3.42;;;1.95;;
64061;SDS011;50308;47.438;-1.528;2023-05-07T14:56:03;1.48;;;0.60;;
64061;SDS011;50308;47.438;-1.528;2023-05-07T14:58:30;0.90;;;0.50;;
64061;SDS011;50308;47.438;-1.528;2023-05-07T15:00:55;1.45;;;0.60;;
64061;SDS011;50308;47.438;-1.528;2023-05-07T15:03:21;0.90;;;0.70;;
64061;SDS011;50308;47.438;-1.528;2023-05-07T15:05:48;0.93;;;0.50;;
64061;SDS011;50308;47.438;-1.528;2023-05-07T15:08:16;2.58;;;0.80;;
64061;SDS011;50308;47.438;-1.528;2023-05-07T15:10:42;1.38;;;0.70;;
64061;SDS011;50308;47.438;-1.528;2023-05-07T15:13:11;1.27;;;0.70;;
64061;SDS011;50308;47.438;-1.528;2023-05-07T15:15:40;1.20;;;0.73;;
64061;SDS011;50308;47.438;-1.528;2023-05-07T15:18:06;0.80;;;0.60;;